TimePDT,TemperatureF,Dew PointF,Humidity,Sea Level PressureIn,VisibilityMPH,Wind Direction,Wind SpeedMPH,Gust SpeedMPH,PrecipitationIn,Events,Conditions,WindDirDegrees,DateUTC
12:53 AM,34.0,30.9,89,30.24,10.0,Calm,Calm,-,N/A,,Clear,0,2013-03-14 07:53:00
1:53 AM,35.1,32.0,89,30.22,10.0,Calm,Calm,-,N/A,,Clear,0,2013-03-14 08:53:00
2:53 AM,34.0,30.9,89,30.20,10.0,Calm,Calm,-,N/A,,Clear,0,2013-03-14 09:53:00
3:53 AM,28.9,27.0,92,30.21,10.0,Calm,Calm,-,N/A,,Clear,0,2013-03-14 10:53:00
4:53 AM,33.1,30.0,89,30.19,10.0,Calm,Calm,-,N/A,,Clear,0,2013-03-14 11:53:00
5:53 AM,30.0,28.0,92,30.20,10.0,Calm,Calm,-,N/A,,Clear,0,2013-03-14 12:53:00
6:53 AM,32.0,30.9,96,30.19,10.0,East,3.5,-,N/A,,Clear,80,2013-03-14 13:53:00
7:53 AM,34.0,32.0,92,30.20,10.0,Calm,Calm,-,N/A,,Clear,0,2013-03-14 14:53:00
8:53 AM,39.0,35.1,86,30.19,10.0,Calm,Calm,-,N/A,,Clear,0,2013-03-14 15:53:00
9:53 AM,46.4,37.4,71,30.14,10.0,East,9.2,-,N/A,,Clear,100,2013-03-14 16:53:00
10:53 AM,55.9,35.1,45,30.15,10.0,East,16.1,20.7,N/A,,Clear,90,2013-03-14 17:53:00
11:53 AM,55.9,36.0,47,30.14,10.0,East,17.3,-,N/A,,Clear,80,2013-03-14 18:53:00
12:53 PM,59.0,37.0,44,30.14,10.0,East,13.8,-,N/A,,Clear,90,2013-03-14 19:53:00
1:53 PM,63.0,35.1,35,30.11,10.0,ESE,9.2,-,N/A,,Clear,120,2013-03-14 20:53:00
2:53 PM,61.0,36.0,39,30.09,10.0,SW,8.1,-,N/A,,Clear,230,2013-03-14 21:53:00
3:53 PM,61.0,35.1,38,30.10,10.0,Calm,Calm,-,N/A,,Clear,0,2013-03-14 22:53:00
4:53 PM,61.0,35.1,38,30.08,10.0,Calm,Calm,-,N/A,,Clear,0,2013-03-14 23:53:00
5:53 PM,57.9,37.0,46,30.10,10.0,Calm,Calm,-,N/A,,Partly Cloudy,0,2013-03-15 00:53:00
6:53 PM,52.0,37.0,57,30.10,10.0,ENE,6.9,-,N/A,,Clear,60,2013-03-15 01:53:00
7:53 PM,51.1,35.1,54,30.10,10.0,Calm,Calm,-,N/A,,Clear,0,2013-03-15 02:53:00
8:53 PM,50.0,35.1,57,30.10,10.0,SSE,9.2,-,N/A,,Clear,160,2013-03-15 03:53:00
9:53 PM,42.1,35.1,76,30.12,10.0,Calm,Calm,-,N/A,,Clear,0,2013-03-15 04:53:00
10:53 PM,43.0,35.1,74,30.13,10.0,Calm,Calm,-,N/A,,Mostly Cloudy,0,2013-03-15 05:53:00
11:53 PM,37.9,32.0,79,30.14,10.0,ESE,3.5,-,N/A,,Partly Cloudy,120,2013-03-15 06:53:00